Terminal Aerodrome Forecast
Issued by NWS Billings, MT

Home | Current Version | Previous Version | Graphics & Text | Print | Product List | Glossary On
Versions: 1 2 3 4 5 6 7 8 9 10 11 12 13
000
FTUS45 KBYZ 200520
TAFMLS
TAF
KMLS 200520Z 2006/2106 30010KT P6SM VCSH SCT040 BKN100
     FM200900 27010KT P6SM SCT100 BKN200
     FM201800 27015G22KT P6SM FEW050 SCT200=

USA.gov is the U.S. government's official web portal to all federal, state and local government web resources and services.